Sandy Creek, TX (76556)

11:09 AM CDT on October 21, 2014 (GMT -0500)
east cameron | Change Station
CLOSE
Current Station
Personal Weather Station
Location: Cameron, TX
Elevation: 404 ft
Nearby Weather Stations

Elev 404 ft 30.86 °N, 96.96 °W | Updated 3 minutes ago

Clear
Clear
79.3 °F
Feels Like 80 °F
N
1.1
Wind Variable Wind from WSW

Today
High -- | Low -- °F
--% Chance of Precip.
Yesterday
High -- | Low -- °F
Precip. -- in
7:33 AM 6:49 PM
Waning Crescent, 5% visible
Pressure 30.11 in
Visibility 10.0 miles
Clouds Clear
Heat Index 80 °F
Dew Point 57 °F
Humidity 46%
Rainfall 0.00 in
Snow Depth Not available.
UV 4 out of 12
Pollen 6.60 out of 12
Air Quality Not available.
Flu Activity Sporadic
METAR KT35 211555Z AUTO 08005KT 10SM CLR 22/15 A3011 RMK AO2 T02240145

More Conditions Fewer Conditions

Pressure 30.11 in
Visibility 10.0 miles
Clouds Clear
Heat Index 80 °F
Dew Point 57 °F
Humidity 46%
Rainfall 0.00 in
Snow Depth Not available.
UV 4 out of 12
Pollen 6.60 out of 12
Air Quality Not available.
Flu Activity Sporadic
METAR KT35 211555Z AUTO 08005KT 10SM CLR 22/15 A3011 RMK AO2 T02240145

More Conditions Fewer Conditions

10-Day Weather Forecast

Almanac

Astronomy

Oct. 21, 2014 Rise Set
Actual Time 7:33 AM CDT 6:49 PM CDT
Civil Twilight 7:09 AM CDT 7:13 PM CDT
Nautical Twilight 6:41 AM CDT 7:41 PM CDT
Astronomical Twilight 6:13 AM CDT 8:09 PM CDT
Moon 5:28 AM CDT 5:37 PM CDT
Length of Visible Light 12h 04m
Length of Day
11h 15m
Tomorrow will be 1m 44s shorter.
Waning Crescent, 5% of the Moon is Illuminated
Today
Waning Crescent
Oct 23
New
Oct 30
First Quarter
Nov 6
Full
Nov 14
Last Quarter

Today's Extremes

State Highs State Lows

Community

WunderPhotos

Upload Photos

1,763,704 photos uploaded!

WunderBlogs® & News

Nearby

Snow Depth

Station Depth Elevation
No new snow has been reported.

Earthquake Activity

City Distance Mag. Time & Date
No recent earthquake activity has been reported nearby.
Minimum magnitude displayed is 2.5.

Coastal Water Temperatures

Place Temperature
No Stations Reporting

Nearby Weather Stations